Time;durP1;ratioP1;P1;durP2;ratioP2;P2;SDS_P1;SDS_P2;PMS_P1;PMS_P2;Temp;Humidity;BMP_temperature;BMP_pressure;BME280_temperature;BME280_humidity;BME280_pressure;Samples;Min_cycle;Max_cycle;Signal;HPM_P1;HPM_P2
2021/04/22 00:01:22;;;;;;;12.02;7.60;;;9.70;73.50;;;;;;4962921;28;20123;-76
2021/04/22 00:03:47;;;;;;;10.15;6.22;;;9.70;73.50;;;;;;4969132;28;20033;-76
2021/04/22 00:06:13;;;;;;;12.45;7.07;;;9.70;72.80;;;;;;4968980;28;20033;-75
2021/04/22 00:08:39;;;;;;;11.68;6.55;;;9.80;72.90;;;;;;4980207;28;20508;-77
2021/04/22 00:11:05;;;;;;;7.85;5.72;;;9.80;71.60;;;;;;4965663;28;20034;-76
2021/04/22 00:13:31;;;;;;;9.88;6.18;;;9.80;71.70;;;;;;4965933;28;20731;-77
2021/04/22 00:15:58;;;;;;;8.20;5.68;;;9.80;71.80;;;;;;4970430;28;20026;-76
2021/04/22 00:18:24;;;;;;;9.45;5.97;;;9.70;72.20;;;;;;4965607;28;20725;-76
2021/04/22 00:20:49;;;;;;;10.15;6.22;;;9.70;72.90;;;;;;4968564;28;20041;-77
2021/04/22 00:23:17;;;;;;;9.27;5.70;;;9.60;73.50;;;;;;4966943;28;20023;-76
2021/04/22 00:25:42;;;;;;;9.82;5.68;;;9.50;73.10;;;;;;4967034;28;20375;-76
2021/04/22 00:28:10;;;;;;;10.75;6.10;;;9.60;74.40;;;;;;4961150;28;20110;-75
2021/04/22 00:30:36;;;;;;;8.63;6.20;;;9.50;74.90;;;;;;4967348;28;20023;-76
2021/04/22 00:33:19;;;;;;;9.65;6.78;;;9.50;75.00;;;;;;4963571;28;20037;-77
2021/04/22 00:35:46;;;;;;;11.50;6.35;;;9.50;74.80;;;;;;4964000;28;20033;-76
2021/04/22 00:38:12;;;;;;;9.50;6.05;;;9.50;75.70;;;;;;4969195;28;20058;-76
2021/04/22 00:40:40;;;;;;;7.60;5.32;;;9.40;75.20;;;;;;4966963;28;20034;-76
2021/04/22 00:43:10;;;;;;;9.38;5.85;;;9.40;76.20;;;;;;4968695;28;20378;-77
2021/04/22 00:45:42;;;;;;;7.40;4.57;;;9.50;76.90;;;;;;4969627;28;20018;-76
2021/04/22 00:48:10;;;;;;;7.97;5.63;;;9.40;75.60;;;;;;4962576;28;20149;-76
2021/04/22 00:50:38;;;;;;;11.07;5.55;;;9.40;75.10;;;;;;4964881;28;20026;-76
2021/04/22 00:53:05;;;;;;;7.25;4.85;;;9.40;75.20;;;;;;4971512;28;20085;-75
2021/04/22 00:55:32;;;;;;;9.00;6.07;;;9.50;75.00;;;;;;4966184;28;20428;-75
2021/04/22 00:57:58;;;;;;;9.32;5.47;;;9.30;75.70;;;;;;4964275;28;20026;-76
2021/04/22 01:00:28;;;;;;;8.35;5.40;;;9.20;78.20;;;;;;4966425;28;20030;-76
2021/04/22 01:02:54;;;;;;;8.65;5.65;;;9.30;76.70;;;;;;4972765;28;20505;-76
2021/04/22 01:05:27;;;;;;;9.02;6.50;;;9.20;76.40;;;;;;4964867;28;20034;-76
2021/04/22 01:07:53;;;;;;;9.38;5.22;;;9.20;77.50;;;;;;4970272;28;20413;-76
2021/04/22 01:10:20;;;;;;;7.53;4.90;;;9.20;77.50;;;;;;4966596;28;20030;-76
2021/04/22 01:12:46;;;;;;;8.38;5.18;;;9.20;77.00;;;;;;4984027;28;20093;-76
2021/04/22 01:15:17;;;;;;;10.45;5.13;;;9.20;76.60;;;;;;4967031;28;20050;-76
2021/04/22 01:17:43;;;;;;;8.23;5.85;;;9.10;77.00;;;;;;4968262;28;20118;-76
2021/04/22 01:20:18;;;;;;;7.07;4.97;;;9.10;78.00;;;;;;4964428;28;20872;-76
2021/04/22 01:22:45;;;;;;;7.15;4.78;;;9.00;77.00;;;;;;4967639;28;20027;-76
2021/04/22 01:25:14;;;;;;;8.27;5.00;;;9.00;76.60;;;;;;4962057;28;20577;-76
2021/04/22 01:27:40;;;;;;;6.18;4.72;;;8.90;77.50;;;;;;4960850;28;20034;-76
2021/04/22 01:30:09;;;;;;;9.75;5.05;;;8.80;76.60;;;;;;4965702;28;20064;-77
2021/04/22 01:32:35;;;;;;;8.77;5.47;;;8.70;76.70;;;;;;4966865;28;20492;-76
2021/04/22 01:35:03;;;;;;;7.32;5.13;;;8.70;76.40;;;;;;4965253;28;20038;-77
2021/04/22 01:37:29;;;;;;;7.85;4.15;;;8.70;76.20;;;;;;4973872;28;20027;-77
2021/04/22 01:39:55;;;;;;;7.50;5.25;;;8.70;76.10;;;;;;4962829;28;20509;-76
2021/04/22 01:42:21;;;;;;;8.50;5.78;;;8.60;78.30;;;;;;4966732;28;20055;-76
2021/04/22 01:44:47;;;;;;;9.00;4.75;;;8.30;78.20;;;;;;4950695;28;20114;-75
2021/04/22 01:47:12;;;;;;;7.45;5.15;;;8.30;78.40;;;;;;4961641;28;20118;-76
2021/04/22 01:49:38;;;;;;;7.47;4.97;;;8.30;78.20;;;;;;4962329;28;20045;-75
2021/04/22 01:52:04;;;;;;;11.75;5.90;;;8.40;77.90;;;;;;4966525;28;20541;-76
2021/04/22 01:54:29;;;;;;;8.38;5.28;;;8.20;79.00;;;;;;4962013;28;20026;-75
2021/04/22 01:56:55;;;;;;;7.40;4.80;;;7.90;81.60;;;;;;4964681;28;20023;-75
2021/04/22 01:59:21;;;;;;;8.40;5.60;;;7.70;81.50;;;;;;4964350;28;20035;-76
2021/04/22 02:01:46;;;;;;;7.57;5.00;;;7.90;81.00;;;;;;4960749;28;20034;-76
2021/04/22 02:04:12;;;;;;;8.57;5.38;;;7.90;81.10;;;;;;4963383;28;20027;-77
2021/04/22 02:06:37;;;;;;;8.10;5.07;;;8.00;81.10;;;;;;4964508;28;20034;-75
2021/04/22 02:09:03;;;;;;;9.35;5.65;;;8.10;80.80;;;;;;4965368;28;20406;-77
2021/04/22 02:11:29;;;;;;;8.18;4.75;;;8.10;80.80;;;;;;4962665;28;20390;-76
2021/04/22 02:13:55;;;;;;;6.97;4.78;;;8.10;79.70;;;;;;4967510;28;20019;-76
2021/04/22 02:16:20;;;;;;;5.90;4.18;;;8.00;77.90;;;;;;4969233;28;20042;-75
2021/04/22 02:18:46;;;;;;;8.27;4.88;;;7.80;79.10;;;;;;4960955;28;20054;-76
2021/04/22 02:21:11;;;;;;;6.97;4.57;;;7.70;79.60;;;;;;4966533;28;20537;-76
2021/04/22 02:23:37;;;;;;;9.77;4.88;;;7.60;79.60;;;;;;4965676;28;20161;-77
2021/04/22 02:26:03;;;;;;;9.70;5.05;;;7.60;80.30;;;;;;4987926;28;20018;-76
2021/04/22 02:28:28;;;;;;;7.10;5.18;;;7.60;80.40;;;;;;4968055;28;20027;-75
2021/04/22 02:30:54;;;;;;;7.20;4.88;;;7.60;81.70;;;;;;4965058;28;20106;-75
2021/04/22 02:33:20;;;;;;;5.88;5.10;;;7.60;81.90;;;;;;4966742;28;20043;-76
2021/04/22 02:35:49;;;;;;;9.20;5.40;;;7.60;81.30;;;;;;4975212;28;20023;-77
2021/04/22 02:38:16;;;;;;;8.48;5.85;;;7.60;82.20;;;;;;4972482;28;20023;-77
2021/04/22 02:40:43;;;;;;;8.32;4.97;;;7.60;82.10;;;;;;4967706;28;20033;-76
2021/04/22 02:43:11;;;;;;;8.32;4.85;;;7.60;82.10;;;;;;4968189;28;20061;-76
2021/04/22 02:45:42;;;;;;;6.13;4.23;;;7.70;80.90;;;;;;4967649;28;20424;-76
2021/04/22 02:48:08;;;;;;;6.60;4.70;;;7.60;79.30;;;;;;4965639;28;22306;-76
2021/04/22 02:50:37;;;;;;;7.15;5.18;;;7.50;80.50;;;;;;4968232;28;20102;-76
2021/04/22 02:53:05;;;;;;;11.13;6.28;;;7.50;79.80;;;;;;4970075;28;20023;-76
2021/04/22 02:55:31;;;;;;;8.40;5.03;;;7.50;81.50;;;;;;4973291;28;20037;-76
2021/04/22 02:57:57;;;;;;;10.43;5.82;;;7.40;81.70;;;;;;4969978;28;20105;-76
2021/04/22 03:00:23;;;;;;;9.02;6.05;;;7.50;81.70;;;;;;4964537;28;20113;-75
2021/04/22 03:02:49;;;;;;;9.15;5.90;;;7.40;81.60;;;;;;4972077;28;20448;-75
2021/04/22 03:05:16;;;;;;;9.45;5.85;;;7.50;81.40;;;;;;4968565;28;20031;-76
2021/04/22 03:07:42;;;;;;;10.57;6.50;;;7.50;81.70;;;;;;4968221;28;20027;-76
2021/04/22 03:10:11;;;;;;;11.15;5.45;;;7.40;81.90;;;;;;4966528;28;20085;-76
2021/04/22 03:12:36;;;;;;;10.70;6.35;;;7.50;82.00;;;;;;4970314;28;20023;-76
2021/04/22 03:15:04;;;;;;;12.52;6.45;;;7.50;81.80;;;;;;4966838;28;20093;-76
2021/04/22 03:17:30;;;;;;;7.45;5.90;;;7.50;82.00;;;;;;4965330;28;20045;-77
2021/04/22 03:19:56;;;;;;;10.00;5.72;;;7.50;81.50;;;;;;4966179;28;20485;-76
2021/04/22 03:22:22;;;;;;;11.00;5.40;;;7.40;80.90;;;;;;4969187;28;20035;-76
2021/04/22 03:24:47;;;;;;;8.23;5.43;;;7.30;78.20;;;;;;4966073;28;20486;-76
2021/04/22 03:27:13;;;;;;;10.13;5.20;;;7.10;78.80;;;;;;4961446;28;20041;-76
2021/04/22 03:29:39;;;;;;;6.20;4.40;;;7.00;80.00;;;;;;4969403;28;20057;-77
2021/04/22 03:32:05;;;;;;;7.38;5.18;;;7.00;80.30;;;;;;4965789;28;20514;-76
2021/04/22 03:34:31;;;;;;;11.80;6.50;;;6.90;80.70;;;;;;4965942;28;20535;-75
2021/04/22 03:36:57;;;;;;;12.30;7.45;;;7.00;80.90;;;;;;4965377;28;20022;-77
2021/04/22 03:39:23;;;;;;;11.27;6.82;;;7.00;81.80;;;;;;4964914;28;20034;-75
2021/04/22 03:41:48;;;;;;;13.13;8.18;;;6.90;81.20;;;;;;4966703;28;20053;-77
2021/04/22 03:44:14;;;;;;;11.73;7.10;;;7.00;82.00;;;;;;4964956;28;20031;-77
2021/04/22 03:46:40;;;;;;;8.88;6.15;;;7.00;81.70;;;;;;4968509;28;20035;-77
2021/04/22 03:49:06;;;;;;;9.18;6.47;;;7.00;82.50;;;;;;4968459;28;20027;-75
2021/04/22 03:51:31;;;;;;;13.00;7.93;;;7.00;82.30;;;;;;4970433;28;20088;-76
2021/04/22 03:53:58;;;;;;;11.27;6.57;;;7.10;81.90;;;;;;4970727;28;20023;-76
2021/04/22 03:56:24;;;;;;;13.55;7.25;;;7.00;81.60;;;;;;4966989;28;20032;-75
2021/04/22 03:58:49;;;;;;;11.60;6.97;;;7.00;81.50;;;;;;4967326;28;20061;-76
2021/04/22 04:01:15;;;;;;;13.02;7.38;;;6.90;80.70;;;;;;4971804;28;20058;-75
2021/04/22 04:03:41;;;;;;;14.23;8.18;;;6.90;81.50;;;;;;4970418;28;20026;-76
2021/04/22 04:06:06;;;;;;;13.63;7.93;;;6.90;82.10;;;;;;4970519;28;20034;-76
2021/04/22 04:08:32;;;;;;;14.45;7.93;;;6.90;82.60;;;;;;4969770;28;20472;-76
2021/04/22 04:10:59;;;;;;;15.23;8.05;;;7.00;82.30;;;;;;4965926;28;20031;-75
2021/04/22 04:13:25;;;;;;;12.68;8.15;;;7.00;83.00;;;;;;4967699;28;20129;-75
2021/04/22 04:15:51;;;;;;;14.18;8.27;;;7.00;82.90;;;;;;4971878;28;20058;-75
2021/04/22 04:18:20;;;;;;;12.93;8.23;;;7.00;83.10;;;;;;4967118;28;20031;-76
2021/04/22 04:20:46;;;;;;;13.82;8.15;;;7.10;83.00;;;;;;4967610;28;20033;-75
2021/04/22 04:23:12;;;;;;;13.77;8.35;;;7.10;83.60;;;;;;4962825;28;20031;-75
2021/04/22 04:25:38;;;;;;;15.00;8.30;;;7.00;82.90;;;;;;4967279;28;20390;-75
2021/04/22 04:28:04;;;;;;;16.13;8.82;;;7.00;81.90;;;;;;4972244;28;20037;-76
2021/04/22 04:30:30;;;;;;;16.10;8.93;;;6.90;81.50;;;;;;4974388;28;20096;-76
2021/04/22 04:32:55;;;;;;;15.30;7.85;;;6.80;82.40;;;;;;4962830;28;20505;-75
2021/04/22 04:35:21;;;;;;;13.23;8.15;;;6.80;82.30;;;;;;4966341;28;20485;-75
2021/04/22 04:37:47;;;;;;;13.95;8.50;;;6.80;82.10;;;;;;4964074;28;20482;-75
2021/04/22 04:40:14;;;;;;;13.23;7.97;;;6.80;82.30;;;;;;4966403;28;20039;-76
2021/04/22 04:42:40;;;;;;;15.80;8.45;;;6.80;83.60;;;;;;4969675;28;20501;-76
2021/04/22 04:45:12;;;;;;;15.63;8.35;;;6.80;82.90;;;;;;4981911;28;20489;-76
2021/04/22 04:47:38;;;;;;;11.98;7.90;;;6.80;83.40;;;;;;4966935;28;20343;-77
2021/04/22 04:50:08;;;;;;;13.38;8.50;;;6.80;82.90;;;;;;4963620;28;20081;-76
2021/04/22 04:52:34;;;;;;;15.00;8.57;;;6.80;82.40;;;;;;4969364;28;20054;-75
2021/04/22 04:54:59;;;;;;;13.50;8.27;;;6.80;83.30;;;;;;4965542;28;20054;-76
2021/04/22 04:57:25;;;;;;;14.93;9.00;;;6.80;83.90;;;;;;4965122;28;20045;-75
2021/04/22 04:59:51;;;;;;;16.15;9.05;;;6.70;84.00;;;;;;4963839;28;20054;-75
2021/04/22 05:02:17;;;;;;;14.35;8.65;;;6.70;84.10;;;;;;4966367;28;20038;-76
2021/04/22 05:04:42;;;;;;;16.25;9.40;;;6.80;83.70;;;;;;4958798;28;20049;-75
2021/04/22 05:07:08;;;;;;;14.35;8.95;;;6.80;83.40;;;;;;4967151;28;20051;-75
2021/04/22 05:09:34;;;;;;;15.15;9.38;;;6.90;83.50;;;;;;4964945;28;20177;-77
2021/04/22 05:11:59;;;;;;;17.80;10.73;;;6.90;83.10;;;;;;4965414;28;20433;-75
2021/04/22 05:14:25;;;;;;;16.90;9.57;;;6.90;83.50;;;;;;4968381;28;20029;-75
2021/04/22 05:16:50;;;;;;;16.30;9.68;;;7.00;83.40;;;;;;4963337;28;20031;-76
2021/04/22 05:19:16;;;;;;;16.23;10.18;;;7.00;83.90;;;;;;4966816;28;20118;-76
2021/04/22 05:21:42;;;;;;;14.95;9.38;;;7.00;84.10;;;;;;4969417;28;20110;-76
2021/04/22 05:24:08;;;;;;;16.73;9.73;;;7.10;84.30;;;;;;4967973;28;20037;-75
2021/04/22 05:26:33;;;;;;;14.52;9.05;;;7.00;84.40;;;;;;4966303;28;20517;-75
2021/04/22 05:28:59;;;;;;;15.95;9.25;;;7.00;84.10;;;;;;4969649;28;20498;-75
2021/04/22 05:31:25;;;;;;;14.43;9.18;;;7.10;84.00;;;;;;4966641;28;20126;-75
2021/04/22 05:33:50;;;;;;;15.93;9.20;;;7.10;83.80;;;;;;4963553;28;20130;-75
2021/04/22 05:36:16;;;;;;;19.88;9.82;;;7.10;83.80;;;;;;4966512;28;20553;-75
2021/04/22 05:38:42;;;;;;;18.70;10.75;;;7.10;84.00;;;;;;4966080;28;20031;-75
2021/04/22 05:41:08;;;;;;;16.00;9.98;;;7.20;83.70;;;;;;4967408;28;20019;-76
2021/04/22 05:43:34;;;;;;;18.67;10.88;;;7.20;83.80;;;;;;4964114;28;20042;-75
2021/04/22 05:46:00;;;;;;;18.38;10.32;;;7.30;85.00;;;;;;4967097;28;20038;-75
2021/04/22 05:48:26;;;;;;;20.67;11.57;;;7.40;84.40;;;;;;4964231;28;20033;-76
2021/04/22 05:50:52;;;;;;;24.05;11.20;;;7.50;86.20;;;;;;4955317;28;20027;-76
2021/04/22 05:53:18;;;;;;;18.92;10.90;;;7.50;87.10;;;;;;4959021;28;20102;-75
2021/04/22 05:55:45;;;;;;;22.75;11.70;;;7.60;85.60;;;;;;4963853;28;20717;-75
2021/04/22 05:58:11;;;;;;;16.13;10.50;;;7.60;84.50;;;;;;4966218;28;20117;-75
2021/04/22 06:00:36;;;;;;;20.10;11.95;;;7.70;84.80;;;;;;4966977;28;20174;-74
2021/04/22 06:03:04;;;;;;;19.40;11.32;;;7.70;85.10;;;;;;4966779;28;20019;-76
2021/04/22 06:05:30;;;;;;;22.23;12.20;;;7.80;84.80;;;;;;4969847;28;20094;-75
2021/04/22 06:07:55;;;;;;;20.88;12.60;;;7.80;85.20;;;;;;4980826;28;20023;-76
2021/04/22 06:10:22;;;;;;;19.90;12.35;;;7.90;84.70;;;;;;4971247;28;20527;-75
2021/04/22 06:12:49;;;;;;;22.55;12.98;;;7.90;84.50;;;;;;4969031;28;20620;-74
2021/04/22 06:15:16;;;;;;;17.77;11.82;;;8.00;84.40;;;;;;4970287;28;20027;-74
2021/04/22 06:17:42;;;;;;;20.75;12.95;;;8.10;82.90;;;;;;4966500;28;20031;-76
2021/04/22 06:20:10;;;;;;;19.60;12.23;;;8.20;83.30;;;;;;4971129;28;20159;-75
2021/04/22 06:22:36;;;;;;;21.60;13.40;;;8.30;83.80;;;;;;4967482;28;20026;-74
2021/04/22 06:25:04;;;;;;;20.27;12.80;;;8.30;83.90;;;;;;4972825;28;20053;-75
2021/04/22 06:27:30;;;;;;;21.85;12.98;;;8.40;81.50;;;;;;4971112;28;20471;-75
2021/04/22 06:29:55;;;;;;;23.23;13.18;;;8.40;81.40;;;;;;4970326;28;20063;-76
2021/04/22 06:32:21;;;;;;;19.08;11.95;;;8.40;81.80;;;;;;4969928;28;20657;-72
2021/04/22 06:34:47;;;;;;;22.58;12.57;;;8.40;81.70;;;;;;4971971;28;20155;-75
2021/04/22 06:37:12;;;;;;;23.38;12.55;;;8.50;81.30;;;;;;4966234;28;20027;-75
2021/04/22 06:39:38;;;;;;;24.40;13.45;;;8.60;81.40;;;;;;4970892;28;20042;-75
2021/04/22 06:42:04;;;;;;;24.85;14.13;;;8.70;81.90;;;;;;4971204;28;20109;-76
2021/04/22 06:44:29;;;;;;;22.45;13.25;;;8.70;82.30;;;;;;4958444;28;20031;-75
2021/04/22 06:46:55;;;;;;;21.30;11.38;;;8.80;81.30;;;;;;4954817;28;20023;-75
2021/04/22 06:49:21;;;;;;;22.80;12.45;;;8.80;80.30;;;;;;4959590;28;20062;-75
2021/04/22 06:51:47;;;;;;;21.17;12.13;;;8.80;78.90;;;;;;4972528;28;20086;-76
2021/04/22 06:54:12;;;;;;;19.77;11.90;;;8.80;79.40;;;;;;4959533;28;20035;-75
2021/04/22 06:56:38;;;;;;;17.98;11.52;;;8.90;78.80;;;;;;4961884;28;20630;-74
2021/04/22 06:59:05;;;;;;;22.48;12.73;;;8.90;80.40;;;;;;4964473;28;20035;-75
2021/04/22 07:01:31;;;;;;;21.55;12.60;;;8.90;79.40;;;;;;4953269;28;20039;-75
2021/04/22 07:03:57;;;;;;;22.42;13.68;;;8.90;80.00;;;;;;4956301;28;20562;-75
2021/04/22 07:06:23;;;;;;;23.83;13.35;;;9.00;81.00;;;;;;4962379;28;20024;-75
2021/04/22 07:08:49;;;;;;;24.20;12.73;;;9.00;79.50;;;;;;4964108;28;20039;-75
2021/04/22 07:11:15;;;;;;;22.83;11.75;;;9.10;80.00;;;;;;4965837;28;20031;-74
2021/04/22 07:13:41;;;;;;;24.55;13.07;;;9.20;80.10;;;;;;4964373;28;20037;-75
2021/04/22 07:16:06;;;;;;;23.92;13.93;;;9.30;79.60;;;;;;4957990;28;20442;-75
2021/04/22 07:18:32;;;;;;;21.98;14.02;;;9.40;79.60;;;;;;4954899;28;20540;-75
2021/04/22 07:20:58;;;;;;;23.75;11.98;;;9.50;76.20;;;;;;4958853;28;20034;-75
2021/04/22 07:23:24;;;;;;;24.63;13.82;;;9.50;78.20;;;;;;4962140;28;20031;-75
2021/04/22 07:25:51;;;;;;;21.73;12.95;;;9.60;78.30;;;;;;4963627;28;20046;-75
2021/04/22 07:28:17;;;;;;;22.85;13.63;;;9.70;77.60;;;;;;4965367;28;20030;-75
2021/04/22 07:30:43;;;;;;;22.30;13.00;;;9.80;77.00;;;;;;4962678;28;20624;-76
2021/04/22 07:33:09;;;;;;;21.48;12.18;;;9.80;76.00;;;;;;4955586;28;20031;-75
2021/04/22 07:35:36;;;;;;;28.33;13.75;;;9.80;76.10;;;;;;4962836;28;20053;-75
2021/04/22 07:38:02;;;;;;;21.65;13.05;;;10.00;77.20;;;;;;4959286;28;20023;-75
2021/04/22 07:40:31;;;;;;;20.38;11.95;;;10.00;75.60;;;;;;4961550;28;20030;-75
2021/04/22 07:42:57;;;;;;;21.02;11.70;;;10.10;75.30;;;;;;4960877;28;20513;-74
2021/04/22 07:45:36;;;;;;;23.02;13.63;;;10.20;76.00;;;;;;4961477;28;20027;-76
2021/04/22 07:48:03;;;;;;;18.90;12.25;;;10.20;75.50;;;;;;4957003;28;20026;-76
2021/04/22 07:50:29;;;;;;;24.23;13.50;;;10.20;73.80;;;;;;4955686;28;20022;-75
2021/04/22 07:52:55;;;;;;;22.70;12.73;;;10.20;75.50;;;;;;4958055;28;20030;-74
2021/04/22 07:55:28;;;;;;;21.23;12.27;;;10.30;74.50;;;;;;4957411;28;20230;-76
2021/04/22 07:57:54;;;;;;;22.65;12.80;;;10.30;75.10;;;;;;4962484;28;20027;-75
2021/04/22 08:00:21;;;;;;;23.10;13.02;;;10.30;73.10;;;;;;4962713;28;20027;-75
2021/04/22 08:02:48;;;;;;;19.10;13.65;;;10.30;74.00;;;;;;4962489;28;20026;-75
2021/04/22 08:05:15;;;;;;;23.00;13.05;;;10.40;72.00;;;;;;4980487;28;20038;-75
2021/04/22 08:07:41;;;;;;;23.95;14.13;;;10.40;73.50;;;;;;4969093;28;20081;-75
2021/04/22 08:10:12;;;;;;;22.38;12.55;;;10.50;72.90;;;;;;4965655;28;20027;-76
2021/04/22 08:12:38;;;;;;;20.65;11.95;;;10.50;73.60;;;;;;4964654;28;21310;-75
2021/04/22 08:15:08;;;;;;;21.27;13.10;;;10.50;71.30;;;;;;4966911;28;20031;-75
2021/04/22 08:17:34;;;;;;;21.90;13.82;;;10.50;72.80;;;;;;4968852;28;20508;-75
2021/04/22 08:20:05;;;;;;;19.77;12.50;;;10.50;74.70;;;;;;4966431;28;20030;-75
2021/04/22 08:22:31;;;;;;;22.00;13.63;;;10.60;71.80;;;;;;4969102;28;20022;-74
2021/04/22 08:24:56;;;;;;;21.70;14.07;;;10.70;72.00;;;;;;4967074;28;20044;-74
2021/04/22 08:27:22;;;;;;;21.70;13.48;;;10.90;71.40;;;;;;4965160;28;20042;-74
2021/04/22 08:29:47;;;;;;;20.73;14.15;;;10.80;72.40;;;;;;4961120;28;20531;-75
2021/04/22 08:32:13;;;;;;;22.20;13.82;;;10.90;72.90;;;;;;4970441;28;20137;-74
2021/04/22 08:34:38;;;;;;;20.33;13.93;;;10.90;71.80;;;;;;4964515;28;20077;-75
2021/04/22 08:37:04;;;;;;;21.27;13.40;;;10.90;72.60;;;;;;4969612;28;20030;-74
2021/04/22 08:39:30;;;;;;;22.70;13.70;;;10.70;74.50;;;;;;4967462;28;20029;-74
2021/04/22 08:41:56;;;;;;;25.10;13.32;;;10.70;72.60;;;;;;4968710;28;20027;-75
2021/04/22 08:44:22;;;;;;;22.80;13.98;;;10.60;73.50;;;;;;4966196;28;20565;-74
2021/04/22 08:46:48;;;;;;;20.92;13.63;;;10.60;71.60;;;;;;4969312;28;20102;-74
2021/04/22 08:49:15;;;;;;;23.10;13.18;;;10.60;72.60;;;;;;4967610;28;20441;-74
2021/04/22 08:51:40;;;;;;;19.92;13.15;;;10.60;72.60;;;;;;4969998;28;20100;-74
2021/04/22 08:54:06;;;;;;;21.80;13.18;;;10.50;72.60;;;;;;4968424;28;20034;-74
2021/04/22 08:56:34;;;;;;;20.17;12.45;;;10.50;72.90;;;;;;4968730;28;20023;-75
2021/04/22 08:59:01;;;;;;;25.77;13.65;;;10.50;73.40;;;;;;4972466;28;20022;-74
2021/04/22 09:01:27;;;;;;;21.40;13.18;;;10.60;74.00;;;;;;4968355;28;20035;-75
2021/04/22 09:03:53;;;;;;;26.80;14.73;;;10.50;73.60;;;;;;4963537;28;20019;-75
2021/04/22 09:06:19;;;;;;;19.02;12.50;;;10.50;75.20;;;;;;4968178;28;20465;-75
2021/04/22 09:08:46;;;;;;;20.02;12.55;;;10.60;73.20;;;;;;4965446;28;20071;-75
2021/04/22 09:11:15;;;;;;;25.45;15.13;;;10.70;73.10;;;;;;4972343;28;20414;-75
2021/04/22 09:13:40;;;;;;;21.17;12.60;;;10.70;72.80;;;;;;4965377;28;20019;-75
2021/04/22 09:16:18;;;;;;;21.48;13.93;;;10.70;71.30;;;;;;4972088;28;20030;-76
2021/04/22 09:18:50;;;;;;;20.65;12.88;;;10.60;72.50;;;;;;4966109;28;20461;-74
2021/04/22 09:21:28;;;;;;;25.05;13.45;;;10.70;75.30;;;;;;4971947;28;20599;-75
2021/04/22 09:23:54;;;;;;;23.50;13.30;;;10.50;73.70;;;;;;4966723;28;20042;-74
2021/04/22 09:26:20;;;;;;;22.48;14.15;;;10.40;73.70;;;;;;4974550;28;20062;-76
2021/04/22 09:28:47;;;;;;;21.55;12.70;;;10.40;73.60;;;;;;4966352;28;20465;-75
2021/04/22 09:31:25;;;;;;;20.88;11.88;;;10.40;74.10;;;;;;4968277;28;20050;-74
2021/04/22 09:34:03;;;;;;;28.45;13.80;;;10.40;71.80;;;;;;4962865;28;20355;-75
2021/04/22 09:36:47;;;;;;;19.30;12.20;;;10.40;73.90;;;;;;4966436;28;20023;-74
2021/04/22 09:39:16;;;;;;;21.98;12.75;;;10.50;72.30;;;;;;4969449;28;20027;-76
2021/04/22 09:41:43;;;;;;;21.92;12.43;;;10.60;71.70;;;;;;4969795;28;20022;-75
2021/04/22 09:44:13;;;;;;;23.10;13.05;;;10.60;71.10;;;;;;4966709;28;20030;-75
2021/04/22 09:46:42;;;;;;;22.50;12.40;;;10.60;70.10;;;;;;4972332;28;20030;-75
2021/04/22 09:49:14;;;;;;;21.80;11.85;;;10.70;70.40;;;;;;4968606;28;20330;-75
2021/04/22 09:51:42;;;;;;;20.08;11.95;;;10.80;68.40;;;;;;4971739;28;20034;-75
2021/04/22 09:54:19;;;;;;;17.95;11.73;;;11.00;69.40;;;;;;4967266;28;20027;-76
2021/04/22 09:56:54;;;;;;;25.00;12.05;;;11.00;67.10;;;;;;4975619;28;20784;-75
2021/04/22 09:59:26;;;;;;;19.73;12.90;;;11.10;67.10;;;;;;4966806;28;20026;-75
2021/04/22 10:02:00;;;;;;;22.40;12.98;;;11.30;69.70;;;;;;4966811;28;20650;-75
2021/04/22 10:04:40;;;;;;;19.45;11.63;;;11.40;67.70;;;;;;4970028;28;20026;-75
2021/04/22 10:07:17;;;;;;;19.42;12.60;;;11.60;65.40;;;;;;4982357;28;20057;-76
2021/04/22 10:09:43;;;;;;;18.65;12.25;;;11.60;65.70;;;;;;4962878;28;20030;-75
2021/04/22 10:12:18;;;;;;;20.15;12.27;;;11.60;66.50;;;;;;4968231;28;20035;-74
2021/04/22 10:14:44;;;;;;;19.27;12.02;;;11.70;67.00;;;;;;4965230;28;20038;-75
2021/04/22 10:17:18;;;;;;;18.77;11.77;;;11.70;65.70;;;;;;4969162;28;20026;-74
2021/04/22 10:19:59;;;;;;;27.50;13.05;;;11.70;64.30;;;;;;4968199;28;20046;-75
2021/04/22 10:22:33;;;;;;;18.33;11.85;;;11.50;63.30;;;;;;4965605;28;20639;-75
2021/04/22 10:25:03;;;;;;;20.85;12.45;;;11.60;64.80;;;;;;4968047;28;20023;-75
2021/04/22 10:27:30;;;;;;;21.23;12.45;;;11.70;66.10;;;;;;4968382;28;20089;-75
2021/04/22 10:29:56;;;;;;;21.25;12.63;;;11.60;64.40;;;;;;4966409;28;20041;-75
2021/04/22 10:32:23;;;;;;;24.02;12.77;;;11.70;65.80;;;;;;4966515;28;20524;-75
2021/04/22 10:34:51;;;;;;;24.60;14.68;;;11.90;66.50;;;;;;4967771;28;20119;-75
2021/04/22 10:37:18;;;;;;;22.60;13.95;;;12.10;65.10;;;;;;4966534;28;20026;-74
2021/04/22 10:39:46;;;;;;;22.70;13.80;;;12.10;64.30;;;;;;4965470;28;20062;-75
2021/04/22 10:42:12;;;;;;;23.17;14.03;;;12.10;63.80;;;;;;4971448;28;20523;-75
2021/04/22 10:44:38;;;;;;;21.30;12.85;;;12.10;64.50;;;;;;4967404;28;20027;-74
2021/04/22 10:47:04;;;;;;;26.25;14.48;;;12.20;63.40;;;;;;4979257;28;20853;-75
2021/04/22 10:49:30;;;;;;;23.90;14.25;;;12.20;65.00;;;;;;4971867;28;20106;-75
2021/04/22 10:51:57;;;;;;;22.85;14.23;;;12.20;62.80;;;;;;4974024;28;20115;-76
2021/04/22 10:54:23;;;;;;;25.70;13.77;;;12.40;66.10;;;;;;4974174;28;20022;-75
2021/04/22 10:57:00;;;;;;;21.52;13.50;;;12.50;63.70;;;;;;4979174;28;20057;-76
2021/04/22 10:59:25;;;;;;;24.42;14.27;;;12.40;63.40;;;;;;4971221;28;20027;-75
2021/04/22 11:01:51;;;;;;;22.27;14.48;;;12.50;63.70;;;;;;4974998;28;20039;-75
2021/04/22 11:04:18;;;;;;;27.85;15.00;;;12.50;63.20;;;;;;4967753;28;20215;-74
2021/04/22 11:06:44;;;;;;;29.00;15.52;;;12.40;62.10;;;;;;4970681;28;20042;-75
2021/04/22 11:09:15;;;;;;;22.92;13.85;;;12.30;61.80;;;;;;4974157;28;20034;-75
2021/04/22 11:11:59;;;;;;;27.30;14.82;;;12.20;62.10;;;;;;4972022;28;20034;-75
2021/04/22 11:14:43;;;;;;;24.48;14.98;;;12.10;64.10;;;;;;4968695;28;20154;-75
2021/04/22 11:17:10;;;;;;;27.40;13.60;;;12.10;62.80;;;;;;4967094;28;20031;-75
2021/04/22 11:19:42;;;;;;;25.60;13.80;;;12.20;62.60;;;;;;4974873;28;20021;-75
2021/04/22 11:22:21;;;;;;;21.92;13.77;;;12.20;62.40;;;;;;4967042;28;20021;-75
2021/04/22 11:24:53;;;;;;;21.25;13.18;;;12.10;62.80;;;;;;4971887;28;20366;-75
2021/04/22 11:27:20;;;;;;;22.67;13.63;;;12.20;60.10;;;;;;4966758;28;20033;-75
2021/04/22 11:29:51;;;;;;;21.08;13.57;;;12.30;62.50;;;;;;4980300;28;20039;-75
2021/04/22 11:32:34;;;;;;;21.98;13.02;;;12.30;62.60;;;;;;4967201;28;20466;-75
2021/04/22 11:35:20;;;;;;;21.90;13.95;;;12.30;61.70;;;;;;4968017;28;20118;-75
2021/04/22 11:38:06;;;;;;;25.00;14.10;;;12.30;62.80;;;;;;4967925;28;20027;-75
2021/04/22 11:40:46;;;;;;;25.00;14.55;;;12.50;61.60;;;;;;4966669;28;20046;-75
2021/04/22 11:43:24;;;;;;;23.65;14.25;;;12.60;58.20;;;;;;4963847;28;20027;-75
2021/04/22 11:45:52;;;;;;;26.15;14.80;;;12.60;62.80;;;;;;4970584;28;22090;-74
2021/04/22 11:48:19;;;;;;;22.45;14.35;;;12.60;63.80;;;;;;4968276;28;20023;-75
2021/04/22 11:50:54;;;;;;;21.03;13.23;;;12.60;61.50;;;;;;4970254;28;20050;-75
2021/04/22 11:53:40;;;;;;;23.90;14.30;;;12.70;61.30;;;;;;4965983;28;20102;-74
2021/04/22 11:56:08;;;;;;;21.65;12.77;;;12.80;63.00;;;;;;4964582;28;20497;-74
2021/04/22 11:58:34;;;;;;;26.25;14.25;;;12.60;58.50;;;;;;4959552;28;20027;-74
2021/04/22 12:01:08;;;;;;;24.92;14.15;;;12.70;60.10;;;;;;4967999;28;20114;-74
2021/04/22 12:03:36;;;;;;;22.27;14.07;;;12.70;60.80;;;;;;4966675;28;20023;-75
2021/04/22 12:06:04;;;;;;;;;;;12.60;60.50;;;;;;4968062;28;20459;-75
2021/04/22 12:08:36;;;;;;;19.38;12.65;;;12.40;60.40;;;;;;4965494;28;19945;-74
2021/04/22 12:11:04;;;;;;;21.10;12.70;;;12.40;59.60;;;;;;4969950;28;20035;-74
2021/04/22 12:13:33;;;;;;;21.63;12.70;;;12.50;60.70;;;;;;4966565;28;20641;-74
2021/04/22 12:16:00;;;;;;;25.25;12.30;;;12.50;59.40;;;;;;4966844;28;20023;-74
2021/04/22 12:18:33;;;;;;;20.50;12.10;;;12.50;60.10;;;;;;4964906;28;20027;-74
2021/04/22 12:21:09;;;;;;;20.50;12.38;;;12.60;60.60;;;;;;4967987;28;20061;-74
2021/04/22 12:23:37;;;;;;;18.58;11.57;;;12.80;61.50;;;;;;4963219;28;20026;-74
2021/04/22 12:26:19;;;;;;;20.77;11.43;;;12.70;56.70;;;;;;4964731;28;20034;-74
2021/04/22 12:29:01;;;;;;;18.73;11.88;;;12.90;58.80;;;;;;4985757;28;20034;-74
2021/04/22 12:31:27;;;;;;;20.50;13.05;;;12.90;58.80;;;;;;4966079;28;20034;-75
2021/04/22 12:33:55;;;;;;;20.17;12.20;;;12.90;58.60;;;;;;4968055;28;20408;-74
2021/04/22 12:36:21;;;;;;;16.70;11.40;;;13.10;57.00;;;;;;4971001;28;20031;-74
2021/04/22 12:38:47;;;;;;;15.85;10.00;;;13.20;60.70;;;;;;4970502;28;20031;-74
2021/04/22 12:41:16;;;;;;;16.00;9.95;;;13.10;58.80;;;;;;4971019;28;20059;-74
2021/04/22 12:43:45;;;;;;;12.88;8.68;;;13.00;58.00;;;;;;4967166;28;20611;-75